createdAt,value
2018-04-30T00:00:55.841Z,16.16
2018-04-30T00:02:47.602Z,16.16
2018-04-30T00:03:47.530Z,16.18
2018-04-30T00:05:39.299Z,16.13
2018-04-30T00:06:39.223Z,16.10
2018-04-30T00:08:31.008Z,16.07
2018-04-30T00:09:30.956Z,16.01
2018-04-30T00:11:22.744Z,16.06
2018-04-30T00:12:22.671Z,15.96
2018-04-30T00:14:14.459Z,15.98
2018-04-30T00:15:14.398Z,15.86
2018-04-30T00:17:06.197Z,15.95
2018-04-30T00:18:06.124Z,16.01
2018-04-30T00:19:57.911Z,16.03
2018-04-30T00:20:57.848Z,15.98
2018-04-30T00:22:49.612Z,16.07
2018-04-30T00:23:49.546Z,16.01
2018-04-30T00:25:41.301Z,16.06
2018-04-30T00:26:41.230Z,16.07
2018-04-30T00:28:33.013Z,15.89
2018-04-30T00:29:32.954Z,15.95
2018-04-30T00:31:24.722Z,15.98
2018-04-30T00:32:24.645Z,15.93
2018-04-30T00:34:16.430Z,15.91
2018-04-30T00:35:16.372Z,15.84
2018-04-30T00:37:08.169Z,15.81
2018-04-30T00:38:08.095Z,15.85
2018-04-30T00:39:59.881Z,15.93
2018-04-30T00:40:59.821Z,15.88
2018-04-30T00:42:51.621Z,15.95
2018-04-30T00:43:51.548Z,15.88
2018-04-30T00:45:43.328Z,15.84
2018-04-30T00:46:43.272Z,15.77
2018-04-30T00:48:35.069Z,15.77
2018-04-30T00:49:35.003Z,15.78
2018-04-30T00:51:26.758Z,15.77
2018-04-30T00:52:26.687Z,15.70
2018-04-30T00:54:18.444Z,15.78
2018-04-30T00:55:18.385Z,15.62
2018-04-30T00:57:10.144Z,15.74
2018-04-30T00:58:10.074Z,15.68
2018-04-30T01:00:01.817Z,15.77
2018-04-30T01:01:01.758Z,15.71
2018-04-30T01:02:53.524Z,15.73
2018-04-30T01:03:53.446Z,15.74
2018-04-30T01:05:45.202Z,15.78
2018-04-30T01:06:45.144Z,15.64
2018-04-30T01:08:36.900Z,15.74
2018-04-30T01:09:36.831Z,15.73
2018-04-30T01:11:28.620Z,15.70
2018-04-30T01:12:28.540Z,15.68
2018-04-30T01:14:20.282Z,15.68
2018-04-30T01:15:20.223Z,15.64
2018-04-30T01:17:11.978Z,15.60
2018-04-30T01:18:11.911Z,15.58
2018-04-30T01:20:03.677Z,15.59
2018-04-30T01:21:03.617Z,15.58
2018-04-30T01:22:55.406Z,15.56
2018-04-30T01:23:55.333Z,15.46
2018-04-30T01:25:47.093Z,15.58
2018-04-30T01:26:47.030Z,15.52
2018-04-30T01:28:38.787Z,15.59
2018-04-30T01:29:38.710Z,15.55
2018-04-30T01:31:30.466Z,15.56
2018-04-30T01:32:30.404Z,15.55
2018-04-30T01:34:22.163Z,15.60
2018-04-30T01:35:22.095Z,15.56
2018-04-30T01:37:13.889Z,15.62
2018-04-30T01:38:13.791Z,15.58
2018-04-30T01:40:05.541Z,15.56
2018-04-30T01:41:05.478Z,15.53
2018-04-30T01:42:57.241Z,15.67
2018-04-30T01:43:57.166Z,15.56
2018-04-30T01:45:48.929Z,15.67
2018-04-30T01:46:48.866Z,15.56
2018-04-30T01:48:40.627Z,15.55
2018-04-30T01:49:40.556Z,15.59
2018-04-30T01:51:32.303Z,15.68
2018-04-30T01:52:32.243Z,15.66
2018-04-30T01:54:24.014Z,15.74
2018-04-30T01:55:23.938Z,15.77
2018-04-30T01:57:15.701Z,15.71
2018-04-30T01:58:15.631Z,15.70
2018-04-30T02:00:07.424Z,15.71
2018-04-30T02:01:07.358Z,15.70
2018-04-30T02:02:59.151Z,15.66
2018-04-30T02:03:59.080Z,15.73
2018-04-30T02:05:50.840Z,15.67
2018-04-30T02:06:50.773Z,15.64
2018-04-30T02:08:42.539Z,15.73
2018-04-30T02:09:42.467Z,15.80
2018-04-30T02:11:34.216Z,15.78
2018-04-30T02:12:34.159Z,15.81
2018-04-30T02:14:25.914Z,15.77
2018-04-30T02:15:25.849Z,15.77
2018-04-30T02:17:17.611Z,15.96
2018-04-30T02:18:17.547Z,15.92
2018-04-30T02:20:09.306Z,15.92
2018-04-30T02:21:09.233Z,15.93
2018-04-30T02:23:00.992Z,15.92
2018-04-30T02:24:00.920Z,15.85
2018-04-30T02:25:52.683Z,15.91
2018-04-30T02:26:52.618Z,15.86
2018-04-30T02:28:44.420Z,15.88
2018-04-30T02:29:44.354Z,15.91
2018-04-30T02:31:36.100Z,15.88
2018-04-30T02:32:36.033Z,15.91
2018-04-30T02:34:27.796Z,15.81
2018-04-30T02:35:27.725Z,15.80
2018-04-30T02:37:19.483Z,15.80
2018-04-30T02:38:19.425Z,15.74
2018-04-30T02:40:11.187Z,15.78
2018-04-30T02:41:11.111Z,15.84
2018-04-30T02:43:02.874Z,15.76
2018-04-30T02:44:02.798Z,15.71
2018-04-30T02:45:54.565Z,15.73
2018-04-30T02:46:54.505Z,15.80
2018-04-30T02:48:46.259Z,15.81
2018-04-30T02:49:46.191Z,15.73
2018-04-30T02:51:37.945Z,15.80
2018-04-30T02:52:37.883Z,15.74
2018-04-30T02:54:29.641Z,15.59
2018-04-30T02:55:29.578Z,15.68
2018-04-30T02:57:21.335Z,15.67
2018-04-30T02:58:21.264Z,15.58
2018-04-30T03:00:13.036Z,15.59
2018-04-30T03:01:12.961Z,15.60
2018-04-30T03:03:04.710Z,15.59
2018-04-30T03:04:04.647Z,15.64
2018-04-30T03:05:56.407Z,15.55
2018-04-30T03:06:56.329Z,15.58
2018-04-30T03:08:48.092Z,15.56
2018-04-30T03:09:48.105Z,15.56
2018-04-30T03:11:39.782Z,15.59
2018-04-30T03:12:39.720Z,15.38
2018-04-30T03:14:31.493Z,15.51
2018-04-30T03:15:31.411Z,15.41
2018-04-30T03:17:23.187Z,15.44
2018-04-30T03:18:23.124Z,15.44
2018-04-30T03:20:14.878Z,15.43
2018-04-30T03:21:14.809Z,15.35
2018-04-30T03:23:06.552Z,15.31
2018-04-30T03:24:06.495Z,15.34
2018-04-30T03:25:58.265Z,15.28
2018-04-30T03:26:58.193Z,15.31
2018-04-30T03:28:49.953Z,15.19
2018-04-30T03:29:49.879Z,15.31
2018-04-30T03:31:41.631Z,15.38
2018-04-30T03:32:41.577Z,15.28
2018-04-30T03:34:33.344Z,15.25
2018-04-30T03:35:33.264Z,15.34
2018-04-30T03:37:25.018Z,15.25
2018-04-30T03:38:24.962Z,15.28
2018-04-30T03:40:16.733Z,15.23
2018-04-30T03:41:16.662Z,15.27
2018-04-30T03:43:08.418Z,15.19
2018-04-30T03:44:08.357Z,15.16
2018-04-30T03:46:00.134Z,15.25
2018-04-30T03:47:00.062Z,15.22
2018-04-30T03:48:51.884Z,15.20
2018-04-30T03:49:51.757Z,15.20
2018-04-30T03:51:43.536Z,15.22
2018-04-30T03:52:43.464Z,15.23
2018-04-30T03:54:35.229Z,15.22
2018-04-30T03:55:35.155Z,15.15
2018-04-30T03:57:26.911Z,15.15
2018-04-30T03:58:26.850Z,15.22
2018-04-30T04:00:18.630Z,15.33
2018-04-30T04:01:18.563Z,15.27
2018-04-30T04:03:10.347Z,15.22
2018-04-30T04:04:10.247Z,15.20
2018-04-30T04:06:02.006Z,15.18
2018-04-30T04:07:01.936Z,15.15
2018-04-30T04:08:53.701Z,15.18
2018-04-30T04:09:53.641Z,15.23
2018-04-30T04:11:45.410Z,15.22
2018-04-30T04:12:45.373Z,15.13
2018-04-30T04:14:37.099Z,15.11
2018-04-30T04:15:37.037Z,15.07
2018-04-30T04:17:28.794Z,15.11
2018-04-30T04:18:28.726Z,15.22
2018-04-30T04:20:20.510Z,15.23
2018-04-30T04:21:20.438Z,15.22
2018-04-30T04:23:12.187Z,15.19
2018-04-30T04:24:12.127Z,15.19
2018-04-30T04:26:03.887Z,15.15
2018-04-30T04:27:03.815Z,15.20
2018-04-30T04:28:55.562Z,15.25
2018-04-30T04:29:55.501Z,15.37
2018-04-30T04:31:47.281Z,15.23
2018-04-30T04:32:47.210Z,15.30
2018-04-30T04:34:38.960Z,15.28
2018-04-30T04:35:38.897Z,15.31
2018-04-30T04:37:30.664Z,15.33
2018-04-30T04:38:30.593Z,15.38
2018-04-30T04:40:22.372Z,15.41
2018-04-30T04:41:22.280Z,15.37
2018-04-30T04:43:14.045Z,15.35
2018-04-30T04:44:13.982Z,15.31
2018-04-30T04:46:05.744Z,15.40
2018-04-30T04:47:05.668Z,15.40
2018-04-30T04:48:57.417Z,15.38
2018-04-30T04:49:57.360Z,15.40
2018-04-30T04:51:49.129Z,15.40
2018-04-30T04:52:49.058Z,15.48
2018-04-30T04:54:40.809Z,15.40
2018-04-30T04:55:40.747Z,15.40
2018-04-30T04:57:32.511Z,15.48
2018-04-30T04:58:32.446Z,15.49
2018-04-30T05:00:24.190Z,15.55
2018-04-30T05:01:24.130Z,15.62
2018-04-30T05:03:15.895Z,15.67
2018-04-30T05:04:15.812Z,15.55
2018-04-30T05:06:07.569Z,15.64
2018-04-30T05:07:07.504Z,15.78
2018-04-30T05:08:59.265Z,15.91
2018-04-30T05:09:59.206Z,15.99
2018-04-30T05:11:50.979Z,16.16
2018-04-30T05:12:50.904Z,16.14
2018-04-30T05:14:42.659Z,16.11
2018-04-30T05:15:42.603Z,16.10
2018-04-30T05:17:34.356Z,16.13
2018-04-30T05:18:34.290Z,16.29
2018-04-30T05:20:26.034Z,16.26
2018-04-30T05:21:25.980Z,16.36
2018-04-30T05:23:17.758Z,16.32
2018-04-30T05:24:17.683Z,16.33
2018-04-30T05:26:09.431Z,16.59
2018-04-30T05:27:09.368Z,16.80
2018-04-30T05:29:01.125Z,17.24
2018-04-30T05:30:01.058Z,17.33
2018-04-30T05:31:52.831Z,17.77
2018-04-30T05:32:52.761Z,18.26
2018-04-30T05:34:44.505Z,18.84
2018-04-30T05:35:44.452Z,18.91
2018-04-30T05:37:36.226Z,19.20
2018-04-30T05:38:36.154Z,19.61
2018-04-30T05:40:27.915Z,19.95
2018-04-30T05:41:27.850Z,20.05
2018-04-30T05:43:19.639Z,20.16
2018-04-30T05:44:19.564Z,20.51
2018-04-30T05:46:11.354Z,20.34
2018-04-30T05:47:11.291Z,20.42
2018-04-30T05:49:03.092Z,20.75
2018-04-30T05:50:03.018Z,20.53
2018-04-30T05:51:54.812Z,20.63
2018-04-30T05:52:54.745Z,20.57
2018-04-30T05:54:46.511Z,20.40
2018-04-30T05:55:46.456Z,20.76
2018-04-30T05:57:38.221Z,21.33
2018-04-30T05:58:38.150Z,21.08
2018-04-30T06:00:29.941Z,20.63
2018-04-30T06:01:29.846Z,19.71
2018-04-30T06:03:21.681Z,19.65
2018-04-30T06:04:21.553Z,19.10
2018-04-30T06:06:13.330Z,18.31
2018-04-30T06:07:13.272Z,17.86
2018-04-30T06:09:05.137Z,17.68
2018-04-30T06:10:04.990Z,17.86
2018-04-30T06:11:56.774Z,18.11
2018-04-30T06:12:56.718Z,18.01
2018-04-30T06:14:48.506Z,19.07
2018-04-30T06:15:48.442Z,19.61
2018-04-30T06:17:40.243Z,20.79
2018-04-30T06:18:40.168Z,21.26
2018-04-30T06:20:31.955Z,22.01
2018-04-30T06:21:31.894Z,21.99
2018-04-30T06:23:23.688Z,22.56
2018-04-30T06:24:23.622Z,22.84
2018-04-30T06:26:15.405Z,23.18
2018-04-30T06:27:15.345Z,22.44
2018-04-30T06:29:07.143Z,22.08
2018-04-30T06:30:07.081Z,21.86
2018-04-30T06:31:58.855Z,22.19
2018-04-30T06:32:58.799Z,22.35
2018-04-30T06:34:50.597Z,23.26
2018-04-30T06:35:50.526Z,23.03
2018-04-30T06:37:42.318Z,23.53
2018-04-30T06:38:42.251Z,23.31
2018-04-30T06:40:34.031Z,23.14
2018-04-30T06:41:33.977Z,23.04
2018-04-30T06:43:25.768Z,23.41
2018-04-30T06:44:25.701Z,23.72
2018-04-30T06:46:17.484Z,23.74
2018-04-30T06:47:17.431Z,23.90
2018-04-30T06:49:09.218Z,24.70
2018-04-30T06:50:09.152Z,24.99
2018-04-30T06:52:00.930Z,25.29
2018-04-30T06:53:00.876Z,25.14
2018-04-30T06:54:52.674Z,24.34
2018-04-30T06:55:52.608Z,24.33
2018-04-30T06:57:44.395Z,24.23
2018-04-30T06:58:44.331Z,24.99
2018-04-30T07:00:36.112Z,25.60
2018-04-30T07:01:36.057Z,26.00
2018-04-30T07:03:27.848Z,26.81
2018-04-30T07:04:27.783Z,27.11
2018-04-30T07:06:19.561Z,26.53
2018-04-30T07:07:19.512Z,26.69
2018-04-30T07:09:11.415Z,26.51
2018-04-30T07:10:11.234Z,25.76
2018-04-30T07:12:03.015Z,25.72
2018-04-30T07:13:02.956Z,25.69
2018-04-30T07:14:54.743Z,24.89
2018-04-30T07:15:54.680Z,25.04
2018-04-30T07:17:46.458Z,25.31
2018-04-30T07:18:46.405Z,25.27
2018-04-30T07:20:38.196Z,25.72
2018-04-30T07:21:38.133Z,25.83
2018-04-30T07:23:29.918Z,25.86
2018-04-30T07:24:29.859Z,25.41
2018-04-30T07:26:21.634Z,25.69
2018-04-30T07:27:21.580Z,25.72
2018-04-30T07:29:13.368Z,25.64
2018-04-30T07:30:13.305Z,25.44
2018-04-30T07:32:05.074Z,25.66
2018-04-30T07:33:05.023Z,25.86
2018-04-30T07:34:56.801Z,26.65
2018-04-30T07:35:56.731Z,27.13
2018-04-30T07:37:48.499Z,26.53
2018-04-30T07:38:48.444Z,26.68
2018-04-30T07:40:40.221Z,26.91
2018-04-30T07:41:40.158Z,27.09
2018-04-30T07:43:32.052Z,26.73
2018-04-30T07:44:31.887Z,26.65
2018-04-30T07:46:23.663Z,26.87
2018-04-30T07:47:23.612Z,27.25
2018-04-30T07:49:15.462Z,27.16
2018-04-30T07:50:15.329Z,27.21
2018-04-30T07:52:07.108Z,26.87
2018-04-30T07:53:07.055Z,26.83
2018-04-30T07:54:58.847Z,26.54
2018-04-30T07:55:58.781Z,26.98
2018-04-30T07:57:50.562Z,27.76
2018-04-30T07:58:50.510Z,27.66
2018-04-30T08:00:42.292Z,27.52
2018-04-30T08:01:42.235Z,27.78
2018-04-30T08:03:34.024Z,27.83
2018-04-30T08:04:33.958Z,27.95
2018-04-30T08:06:25.733Z,27.08
2018-04-30T08:07:25.685Z,27.43
2018-04-30T08:09:17.475Z,27.18
2018-04-30T08:10:17.416Z,27.33
2018-04-30T08:12:09.185Z,27.86
2018-04-30T08:13:09.135Z,28.13
2018-04-30T08:15:00.934Z,28.21
2018-04-30T08:16:00.863Z,28.57
2018-04-30T08:17:52.633Z,29.25
2018-04-30T08:18:52.582Z,29.37
2018-04-30T08:20:44.400Z,29.97
2018-04-30T08:21:44.315Z,29.76
2018-04-30T08:23:36.098Z,29.30
2018-04-30T08:24:36.036Z,29.54
2018-04-30T08:26:27.818Z,29.51
2018-04-30T08:27:27.768Z,29.54
2018-04-30T08:29:19.552Z,29.67
2018-04-30T08:30:19.491Z,29.99
2018-04-30T08:32:11.261Z,30.56
2018-04-30T08:33:11.216Z,30.90
2018-04-30T08:35:03.005Z,30.13
2018-04-30T08:36:02.940Z,30.04
2018-04-30T08:37:54.717Z,30.68
2018-04-30T08:38:54.666Z,30.16
2018-04-30T08:40:46.453Z,30.70
2018-04-30T08:41:46.391Z,30.54
2018-04-30T08:43:38.174Z,30.79
2018-04-30T08:44:38.121Z,30.36
2018-04-30T08:46:29.896Z,29.97
2018-04-30T08:47:29.842Z,30.26
2018-04-30T08:49:21.621Z,30.54
2018-04-30T08:50:21.566Z,30.56
2018-04-30T08:52:13.423Z,30.72
2018-04-30T08:53:13.292Z,30.64
2018-04-30T08:55:05.083Z,30.78
2018-04-30T08:56:05.025Z,30.67
2018-04-30T08:57:56.794Z,30.16
2018-04-30T08:58:56.743Z,30.34
2018-04-30T09:00:48.525Z,30.30
2018-04-30T09:01:48.470Z,30.59
2018-04-30T09:03:40.238Z,30.88
2018-04-30T09:04:40.193Z,30.88
2018-04-30T09:06:31.979Z,31.13
2018-04-30T09:07:31.929Z,30.68
2018-04-30T09:09:23.698Z,30.76
2018-04-30T09:10:23.642Z,30.97
2018-04-30T09:12:15.417Z,31.52
2018-04-30T09:13:15.372Z,31.92
2018-04-30T09:15:07.164Z,31.32
2018-04-30T09:16:07.091Z,30.45
2018-04-30T09:17:58.866Z,31.31
2018-04-30T09:18:58.814Z,31.34
2018-04-30T09:20:50.607Z,30.79
2018-04-30T09:21:50.551Z,31.10
2018-04-30T09:23:42.331Z,30.67
2018-04-30T09:24:42.283Z,30.83
2018-04-30T09:26:34.063Z,31.47
2018-04-30T09:27:34.005Z,31.50
2018-04-30T09:29:25.806Z,31.00
2018-04-30T09:30:25.734Z,30.88
2018-04-30T09:32:17.508Z,31.57
2018-04-30T09:33:17.461Z,32.16
2018-04-30T09:35:09.282Z,31.98
2018-04-30T09:36:09.227Z,31.32
2018-04-30T09:38:01.002Z,30.48
2018-04-30T09:39:00.955Z,30.90
2018-04-30T09:40:52.743Z,31.07
2018-04-30T09:41:52.681Z,30.88
2018-04-30T09:43:44.484Z,30.90
2018-04-30T09:44:44.437Z,30.79
2018-04-30T09:46:36.232Z,30.53
2018-04-30T09:47:36.178Z,31.04
2018-04-30T09:49:27.963Z,31.05
2018-04-30T09:50:27.903Z,30.79
2018-04-30T09:52:19.673Z,31.37
2018-04-30T09:53:19.630Z,31.32
2018-04-30T09:55:11.412Z,31.49
2018-04-30T09:56:11.360Z,31.91
2018-04-30T09:58:03.171Z,32.29
2018-04-30T09:59:03.116Z,32.46
2018-04-30T10:00:54.909Z,30.93
2018-04-30T10:01:54.855Z,30.29
2018-04-30T10:03:46.631Z,29.86
2018-04-30T10:04:46.586Z,30.42
2018-04-30T10:06:38.373Z,29.52
2018-04-30T10:07:38.315Z,29.12
2018-04-30T10:09:30.106Z,29.74
2018-04-30T10:10:30.136Z,29.42
2018-04-30T10:12:21.826Z,28.94
2018-04-30T10:13:21.772Z,28.50
2018-04-30T10:15:13.558Z,27.71
2018-04-30T10:16:13.498Z,27.45
2018-04-30T10:18:05.278Z,27.55
2018-04-30T10:19:05.217Z,27.68
2018-04-30T10:20:57.001Z,27.38
2018-04-30T10:21:56.941Z,27.25
2018-04-30T10:23:48.751Z,26.79
2018-04-30T10:24:48.667Z,26.56
2018-04-30T10:26:40.438Z,26.42
2018-04-30T10:27:40.378Z,26.44
2018-04-30T10:29:32.147Z,26.29
2018-04-30T10:30:32.105Z,25.89
2018-04-30T10:32:23.875Z,25.71
2018-04-30T10:33:23.811Z,25.56
2018-04-30T10:35:15.599Z,25.42
2018-04-30T10:36:15.540Z,25.44
2018-04-30T10:38:07.433Z,25.75
2018-04-30T10:39:07.277Z,25.64
2018-04-30T10:40:59.058Z,25.42
2018-04-30T10:41:58.992Z,25.91
2018-04-30T10:43:50.779Z,26.00
2018-04-30T10:44:50.726Z,26.12
2018-04-30T10:46:42.506Z,25.85
2018-04-30T10:47:42.440Z,25.38
2018-04-30T10:49:34.221Z,25.74
2018-04-30T10:50:34.167Z,26.00
2018-04-30T10:52:25.952Z,25.46
2018-04-30T10:53:25.880Z,25.48
2018-04-30T10:55:17.656Z,25.39
2018-04-30T10:56:17.589Z,25.30
2018-04-30T10:58:09.352Z,25.01
2018-04-30T10:59:09.298Z,25.01
2018-04-30T11:01:01.072Z,24.80
2018-04-30T11:02:01.011Z,24.68
2018-04-30T11:03:52.764Z,24.94
2018-04-30T11:04:52.713Z,25.23
2018-04-30T11:06:44.491Z,25.27
2018-04-30T11:07:44.430Z,24.93
2018-04-30T11:09:36.194Z,24.75
2018-04-30T11:10:36.141Z,24.45
2018-04-30T11:12:27.982Z,24.12
2018-04-30T11:13:27.863Z,24.14
2018-04-30T11:15:19.664Z,23.79
2018-04-30T11:16:19.606Z,23.68
2018-04-30T11:18:11.392Z,24.18
2018-04-30T11:19:11.318Z,24.36
2018-04-30T11:21:03.104Z,23.67
2018-04-30T11:22:03.040Z,23.39
2018-04-30T11:23:54.822Z,23.37
2018-04-30T11:24:54.771Z,23.38
2018-04-30T11:26:46.569Z,23.34
2018-04-30T11:27:46.505Z,23.62
2018-04-30T11:29:38.261Z,23.89
2018-04-30T11:30:38.212Z,24.05
2018-04-30T11:32:30.006Z,24.08
2018-04-30T11:33:29.942Z,24.16
2018-04-30T11:35:21.738Z,23.59
2018-04-30T11:36:21.676Z,23.23
2018-04-30T11:38:13.442Z,22.70
2018-04-30T11:39:13.391Z,22.72
2018-04-30T11:41:05.177Z,22.51
2018-04-30T11:42:05.111Z,22.48
2018-04-30T11:43:56.897Z,22.51
2018-04-30T11:44:56.840Z,22.63
2018-04-30T11:46:48.625Z,22.51
2018-04-30T11:47:48.562Z,22.54
2018-04-30T11:49:40.317Z,22.44
2018-04-30T11:50:40.264Z,22.42
2018-04-30T11:52:32.038Z,22.29
2018-04-30T11:53:31.971Z,22.23
2018-04-30T11:55:23.799Z,22.27
2018-04-30T11:56:23.733Z,22.35
2018-04-30T11:58:15.520Z,22.21
2018-04-30T11:59:15.460Z,22.24
2018-04-30T12:01:07.255Z,22.14
2018-04-30T12:02:07.189Z,22.15
2018-04-30T12:03:58.973Z,22.19
2018-04-30T12:04:58.967Z,22.17
2018-04-30T12:06:50.680Z,22.01
2018-04-30T12:07:50.617Z,22.17
2018-04-30T12:09:42.371Z,22.12
2018-04-30T12:10:42.311Z,22.24
2018-04-30T12:12:34.081Z,22.39
2018-04-30T12:13:34.020Z,22.52
2018-04-30T12:15:25.771Z,22.46
2018-04-30T12:16:25.714Z,22.46
2018-04-30T12:18:17.484Z,22.67
2018-04-30T12:19:17.412Z,22.74
2018-04-30T12:21:09.179Z,22.70
2018-04-30T12:22:09.139Z,22.93
2018-04-30T12:24:00.869Z,22.93
2018-04-30T12:25:00.812Z,23.06
2018-04-30T12:26:52.579Z,23.18
2018-04-30T12:27:52.510Z,23.14
2018-04-30T12:29:44.357Z,23.09
2018-04-30T12:30:44.207Z,22.84
2018-04-30T12:32:35.973Z,22.59
2018-04-30T12:33:35.946Z,22.51
2018-04-30T12:35:27.695Z,22.38
2018-04-30T12:36:27.637Z,22.48
2018-04-30T12:38:19.410Z,22.74
2018-04-30T12:39:19.339Z,22.96
2018-04-30T12:41:11.109Z,23.14
2018-04-30T12:42:11.038Z,23.23
2018-04-30T12:44:02.810Z,23.01
2018-04-30T12:45:02.756Z,22.86
2018-04-30T12:46:54.535Z,22.89
2018-04-30T12:47:54.460Z,22.96
2018-04-30T12:49:46.223Z,23.14
2018-04-30T12:50:46.244Z,23.26
2018-04-30T12:52:37.932Z,23.11
2018-04-30T12:53:37.864Z,23.07
2018-04-30T12:55:29.634Z,22.89
2018-04-30T12:56:29.577Z,22.84
2018-04-30T12:58:21.344Z,22.67
2018-04-30T12:59:21.290Z,22.59
2018-04-30T13:01:13.054Z,22.41
2018-04-30T13:02:12.988Z,22.24
2018-04-30T13:04:04.742Z,22.12
2018-04-30T13:05:04.687Z,22.17
2018-04-30T13:06:56.457Z,22.08
2018-04-30T13:07:56.385Z,22.08
2018-04-30T13:09:48.147Z,22.44
2018-04-30T13:10:48.090Z,22.48
2018-04-30T13:12:39.862Z,22.59
2018-04-30T13:13:39.793Z,22.52
2018-04-30T13:15:31.576Z,22.33
2018-04-30T13:16:31.520Z,22.39
2018-04-30T13:18:23.314Z,22.19
2018-04-30T13:19:23.245Z,22.15
2018-04-30T13:21:15.044Z,21.98
2018-04-30T13:22:14.969Z,21.89
2018-04-30T13:24:06.755Z,21.70
2018-04-30T13:25:06.692Z,21.73
2018-04-30T13:26:58.497Z,21.74
2018-04-30T13:27:58.414Z,21.75
2018-04-30T13:29:50.170Z,21.81
2018-04-30T13:30:50.119Z,21.89
2018-04-30T13:32:41.923Z,22.01
2018-04-30T13:33:41.833Z,21.99
2018-04-30T13:35:33.583Z,21.96
2018-04-30T13:36:33.529Z,21.94
2018-04-30T13:38:25.299Z,21.82
2018-04-30T13:39:25.230Z,21.83
2018-04-30T13:41:17.014Z,21.79
2018-04-30T13:42:16.948Z,21.83
2018-04-30T13:44:08.736Z,21.94
2018-04-30T13:45:08.685Z,22.02
2018-04-30T13:47:00.437Z,22.15
2018-04-30T13:48:00.368Z,22.19
2018-04-30T13:49:52.152Z,21.99
2018-04-30T13:50:52.097Z,22.04
2018-04-30T13:52:43.862Z,22.19
2018-04-30T13:53:43.794Z,22.14
2018-04-30T13:55:35.550Z,22.21
2018-04-30T13:56:35.501Z,22.14
2018-04-30T13:58:27.276Z,22.31
2018-04-30T13:59:27.212Z,22.39
2018-04-30T14:01:18.994Z,22.51
2018-04-30T14:02:19.005Z,22.63
2018-04-30T14:04:10.722Z,22.56
2018-04-30T14:05:10.654Z,22.41
2018-04-30T14:07:02.450Z,22.30
2018-04-30T14:08:02.385Z,22.33
2018-04-30T14:09:54.146Z,22.27
2018-04-30T14:10:54.089Z,22.42
2018-04-30T14:12:45.884Z,22.42
2018-04-30T14:13:45.812Z,22.30
2018-04-30T14:15:37.609Z,22.39
2018-04-30T14:16:37.551Z,22.63
2018-04-30T14:18:29.347Z,22.74
2018-04-30T14:19:29.282Z,22.63
2018-04-30T14:21:21.144Z,22.66
2018-04-30T14:22:21.004Z,22.64
2018-04-30T14:24:12.821Z,22.86
2018-04-30T14:25:12.751Z,22.91
2018-04-30T14:27:04.520Z,23.03
2018-04-30T14:28:04.452Z,23.03
2018-04-30T14:29:56.237Z,22.96
2018-04-30T14:30:56.183Z,22.96
2018-04-30T14:32:47.977Z,22.84
2018-04-30T14:33:47.909Z,22.75
2018-04-30T14:35:39.689Z,22.54
2018-04-30T14:36:39.636Z,22.44
2018-04-30T14:38:31.414Z,22.26
2018-04-30T14:39:31.346Z,22.19
2018-04-30T14:41:23.095Z,22.14
2018-04-30T14:42:23.037Z,22.14
2018-04-30T14:44:14.818Z,22.06
2018-04-30T14:45:14.750Z,22.04
2018-04-30T14:47:06.530Z,21.96
2018-04-30T14:48:06.447Z,21.94
2018-04-30T14:49:58.213Z,21.93
2018-04-30T14:50:58.157Z,21.66
2018-04-30T14:52:49.953Z,21.11
2018-04-30T14:53:49.898Z,21.16
2018-04-30T14:55:41.640Z,21.31
2018-04-30T14:56:41.646Z,21.42
2018-04-30T14:58:33.349Z,21.46
2018-04-30T14:59:33.279Z,21.59
2018-04-30T15:01:25.030Z,21.43
2018-04-30T15:02:24.987Z,21.52
2018-04-30T15:04:16.819Z,21.48
2018-04-30T15:05:16.670Z,21.27
2018-04-30T15:07:08.463Z,21.16
2018-04-30T15:08:08.391Z,21.06
2018-04-30T15:10:00.145Z,21.11
2018-04-30T15:11:00.092Z,21.05
2018-04-30T15:12:51.850Z,20.83
2018-04-30T15:13:51.784Z,20.87
2018-04-30T15:15:43.534Z,21.27
2018-04-30T15:16:43.477Z,21.28
2018-04-30T15:18:35.258Z,21.36
2018-04-30T15:19:35.281Z,21.31
2018-04-30T15:21:26.942Z,21.43
2018-04-30T15:22:26.882Z,21.46
2018-04-30T15:24:18.649Z,21.31
2018-04-30T15:25:18.577Z,21.16
2018-04-30T15:27:10.360Z,20.94
2018-04-30T15:28:10.351Z,20.94
2018-04-30T15:30:02.031Z,20.81
2018-04-30T15:31:01.973Z,20.73
2018-04-30T15:32:53.752Z,20.69
2018-04-30T15:33:53.677Z,20.53
2018-04-30T15:35:45.505Z,20.68
2018-04-30T15:36:45.374Z,20.83
2018-04-30T15:38:37.139Z,20.87
2018-04-30T15:39:37.071Z,20.83
2018-04-30T15:41:28.845Z,20.75
2018-04-30T15:42:28.783Z,20.76
2018-04-30T15:44:20.553Z,20.64
2018-04-30T15:45:20.478Z,20.79
2018-04-30T15:47:12.230Z,20.93
2018-04-30T15:48:12.171Z,20.87
2018-04-30T15:50:03.934Z,20.73
2018-04-30T15:51:03.867Z,20.82
2018-04-30T15:52:55.660Z,20.50
2018-04-30T15:53:55.594Z,20.46
2018-04-30T15:55:47.416Z,20.35
2018-04-30T15:56:47.315Z,20.40
2018-04-30T15:58:39.109Z,20.50
2018-04-30T15:59:39.043Z,20.63
2018-04-30T16:01:30.948Z,20.64
2018-04-30T16:02:30.738Z,20.66
2018-04-30T16:04:22.511Z,20.75
2018-04-30T16:05:22.440Z,20.69
2018-04-30T16:07:14.218Z,20.68
2018-04-30T16:08:14.147Z,20.81
2018-04-30T16:10:05.918Z,20.91
2018-04-30T16:11:05.848Z,20.93
2018-04-30T16:12:57.611Z,20.82
2018-04-30T16:13:57.554Z,20.75
2018-04-30T16:15:49.303Z,20.66
2018-04-30T16:16:49.241Z,20.63
2018-04-30T16:18:41.021Z,20.78
2018-04-30T16:19:40.946Z,20.79
2018-04-30T16:21:32.699Z,20.85
2018-04-30T16:22:32.639Z,21.09
2018-04-30T16:24:24.403Z,21.38
2018-04-30T16:25:24.334Z,21.33
2018-04-30T16:27:16.160Z,21.26
2018-04-30T16:28:16.023Z,21.05
2018-04-30T16:30:07.789Z,20.88
2018-04-30T16:31:07.722Z,20.88
2018-04-30T16:32:59.506Z,20.71
2018-04-30T16:33:59.437Z,20.72
2018-04-30T16:35:51.194Z,20.72
2018-04-30T16:36:51.131Z,20.78
2018-04-30T16:38:42.898Z,20.63
2018-04-30T16:39:42.882Z,20.58
2018-04-30T16:41:34.590Z,20.53
2018-04-30T16:42:34.532Z,20.63
2018-04-30T16:44:26.302Z,20.54
2018-04-30T16:45:26.236Z,20.50
2018-04-30T16:47:18.051Z,20.69
2018-04-30T16:48:17.939Z,20.48
2018-04-30T16:50:09.700Z,20.54
2018-04-30T16:51:09.632Z,20.57
2018-04-30T16:53:01.454Z,20.46
2018-04-30T16:54:01.341Z,20.53
2018-04-30T16:55:53.095Z,20.50
2018-04-30T16:56:53.033Z,20.53
2018-04-30T16:58:44.807Z,20.41
2018-04-30T16:59:44.725Z,20.50
2018-04-30T17:01:36.475Z,20.38
2018-04-30T17:02:36.417Z,20.37
2018-04-30T17:04:28.179Z,20.30
2018-04-30T17:05:28.111Z,20.23
2018-04-30T17:07:19.857Z,20.15
2018-04-30T17:08:19.804Z,20.17
2018-04-30T17:10:11.566Z,20.05
2018-04-30T17:11:11.496Z,20.05
2018-04-30T17:13:03.280Z,19.94
2018-04-30T17:14:03.215Z,19.94
2018-04-30T17:15:54.979Z,19.94
2018-04-30T17:16:54.913Z,19.95
2018-04-30T17:18:46.703Z,19.76
2018-04-30T17:19:46.638Z,19.89
2018-04-30T17:21:38.392Z,19.80
2018-04-30T17:22:38.334Z,19.75
2018-04-30T17:24:30.096Z,19.71
2018-04-30T17:25:30.039Z,19.70
2018-04-30T17:27:21.806Z,19.64
2018-04-30T17:28:21.747Z,19.67
2018-04-30T17:30:13.539Z,19.67
2018-04-30T17:31:13.469Z,19.71
2018-04-30T17:33:05.222Z,19.65
2018-04-30T17:34:05.166Z,19.67
2018-04-30T17:35:56.957Z,19.55
2018-04-30T17:36:56.881Z,19.49
2018-04-30T17:38:48.665Z,19.49
2018-04-30T17:39:48.579Z,19.43
2018-04-30T17:41:40.352Z,19.31
2018-04-30T17:42:40.278Z,19.38
2018-04-30T17:44:32.053Z,19.35
2018-04-30T17:45:31.985Z,19.30
2018-04-30T17:47:23.745Z,19.27
2018-04-30T17:48:23.853Z,19.31
2018-04-30T17:50:15.451Z,19.35
2018-04-30T17:51:15.375Z,19.30
2018-04-30T17:53:07.133Z,19.28
2018-04-30T17:54:07.096Z,19.17
2018-04-30T17:55:58.868Z,19.13
2018-04-30T17:56:58.796Z,19.12
2018-04-30T17:58:50.639Z,19.01
2018-04-30T17:59:50.520Z,19.06
2018-04-30T18:01:42.270Z,18.91
2018-04-30T18:02:42.214Z,18.91
2018-04-30T18:04:33.977Z,18.86
2018-04-30T18:05:33.907Z,18.91
2018-04-30T18:07:25.662Z,18.84
2018-04-30T18:08:25.602Z,18.82
2018-04-30T18:10:17.362Z,18.78
2018-04-30T18:11:17.296Z,18.79
2018-04-30T18:13:09.045Z,18.74
2018-04-30T18:14:08.988Z,18.66
2018-04-30T18:16:00.758Z,18.57
2018-04-30T18:17:00.678Z,18.54
2018-04-30T18:18:52.464Z,18.46
2018-04-30T18:19:52.420Z,18.47
2018-04-30T18:21:44.189Z,18.35
2018-04-30T18:22:44.120Z,18.35
2018-04-30T18:24:35.883Z,18.20
2018-04-30T18:25:35.822Z,18.19